Resultados de RENTAL GRANDE PRIMIO / PROVA 6 - 17:00
KARTODROMO INTERNACIONAL GRANJA VIANA KGV RACE TRACKS - CIRCUITO 105
Resultados de RENTAL - GRANDE PRIMIO / PROVA 6 - 17:00


Pos No. Nome Classe Comentários Voltas Total Tempo Melhor Tempo na volta. Diff Espaço Melhor Veloc.
1 033 GUSTAVO ARIEL RENTAL 26 18:28.138 41.830 16 62,826
2 008 ALEX CAMPO RENTAL 26 18:37.056 42.046 15 8.918 8.918 62,503
3 024 ALEXANDRE FERNANDES RENTAL 26 18:37.794 42.116 7 9.656 0.738 62,399
4 028 SIDNEY ROGERIO RENTAL 26 18:38.054 41.979 18 9.916 0.260 62,603
5 006 ANDRE MANSANO RENTAL 26 18:40.951 42.072 5 12.813 2.897 62,464
6 029 SAULO RIGHI RENTAL 26 18:41.182 42.036 11 13.044 0.231 62,518
7 010 FLAVIO ALVES RENTAL 26 18:41.862 42.053 2 13.724 0.680 62,493
8 004 PAULO SANT'ANNA RENTAL 26 18:42.280 42.107 9 14.142 0.418 62,412
9 038 ELISSON GANDOLFO RENTAL 26 18:42.509 42.058 11 14.371 0.229 62,485
10 013 ALFREDO SALVAIA RENTAL 26 18:45.877 42.095 10 17.739 3.368 62,430
11 002 HELIO JR RENTAL 26 18:49.773 42.297 21 21.635 3.896 62,132
12 025 RODRIGO CHAFICK RENTAL 26 18:49.893 41.944 25 21.755 0.120 62,655
13 014 FABIO NAKIRI RENTAL 26 18:50.135 42.189 19 21.997 0.242 62,291
14 023 GUILHERME NETO RENTAL 26 18:51.006 42.178 8 22.868 0.871 62,307
15 027 KLEBER BARBAROTTI RENTAL 26 18:55.548 42.461 3 27.410 4.542 61,892
16 017 MARCELO MESQUITA RENTAL 26 18:55.730 42.320 17 27.592 0.182 62,098
17 020 MARCELO HAYASAKA RENTAL 26 18:56.854 42.576 21 28.716 1.124 61,725
18 007 RICARDO TALARICO RENTAL 26 18:57.109 42.637 18 28.971 0.255 61,637
19 036 MARCOS NUNES RENTAL 25 18:31.835 43.239 21 1 Volta 1 Volta 60,778
20 009 EDER SANTOS RENTAL 1 1:23.365 0 25 Voltas 24 Voltas -
Gerada em 01/06/2019 18:36